createdAt,value
2022-09-03T00:00:56.420Z,55.43
2022-09-03T00:06:12.210Z,55.46
2022-09-03T00:11:22.129Z,57.46
2022-09-03T00:16:30.709Z,55.79
2022-09-03T00:21:42.348Z,57.23
2022-09-03T00:26:49.042Z,56.45
2022-09-03T00:31:54.721Z,56.76
2022-09-03T00:36:59.768Z,57.04
2022-09-03T00:42:19.075Z,58.44
2022-09-03T00:47:28.661Z,58.37
2022-09-03T00:52:46.094Z,58.95
2022-09-03T00:58:03.518Z,57.96
2022-09-03T01:03:10.910Z,58.55
2022-09-03T01:08:39.813Z,59.98
2022-09-03T01:13:51.442Z,59.55
2022-09-03T01:19:05.224Z,58.60
2022-09-03T01:24:33.820Z,58.93
2022-09-03T01:29:44.862Z,58.92
2022-09-03T01:34:58.856Z,58.45
2022-09-03T01:40:12.012Z,60.01
2022-09-03T01:45:31.587Z,60.83
2022-09-03T01:50:45.508Z,61.54
2022-09-03T01:56:06.124Z,59.80
2022-09-03T02:01:18.119Z,60.97
2022-09-03T02:06:21.931Z,61.08
2022-09-03T02:11:25.446Z,62.68
2022-09-03T02:16:34.458Z,61.58
2022-09-03T02:21:40.235Z,62.49
2022-09-03T02:26:43.306Z,62.21
2022-09-03T02:31:47.590Z,62.93
2022-09-03T02:36:50.599Z,62.93
2022-09-03T02:41:58.143Z,63.34
2022-09-03T02:47:04.458Z,63.55
2022-09-03T02:52:09.768Z,62.85
2022-09-03T02:57:15.751Z,63.11
2022-09-03T03:02:20.122Z,62.91
2022-09-03T03:07:23.302Z,63.16
2022-09-03T03:12:26.491Z,62.54
2022-09-03T03:17:31.782Z,63.95
2022-09-03T03:22:34.781Z,62.94
2022-09-03T03:27:42.410Z,62.55
2022-09-03T03:32:47.356Z,62.52
2022-09-03T03:37:50.299Z,63.13
2022-09-03T03:42:53.619Z,61.93
2022-09-03T03:48:00.305Z,59.75
2022-09-03T03:53:03.266Z,58.81
2022-09-03T03:58:06.197Z,59.31
2022-09-03T04:03:10.437Z,58.83
2022-09-03T04:08:13.336Z,58.39
2022-09-03T04:13:16.229Z,58.25
2022-09-03T04:18:20.706Z,58.27
2022-09-03T04:23:23.700Z,58.27
2022-09-03T04:28:26.776Z,59.00
2022-09-03T04:33:31.176Z,58.70
2022-09-03T04:38:34.479Z,58.70
2022-09-03T04:43:37.940Z,58.93
2022-09-03T04:48:42.464Z,59.31
2022-09-03T04:53:47.064Z,59.64
2022-09-03T04:58:51.154Z,59.54
2022-09-03T05:03:56.592Z,59.31
2022-09-03T05:09:00.029Z,59.98
2022-09-03T05:14:03.322Z,60.00
2022-09-03T05:19:07.993Z,59.55
2022-09-03T05:24:11.956Z,58.97
2022-09-03T05:29:16.112Z,59.38
2022-09-03T05:34:20.508Z,60.44
2022-09-03T05:39:23.462Z,59.56
2022-09-03T05:44:26.402Z,58.96
2022-09-03T05:49:30.866Z,59.83
2022-09-03T05:54:33.873Z,58.98
2022-09-03T05:59:36.871Z,59.43
2022-09-03T06:04:41.174Z,59.50
2022-09-03T06:09:44.229Z,59.44
2022-09-03T06:14:47.482Z,58.72
2022-09-03T06:19:51.864Z,59.05
2022-09-03T06:24:54.794Z,58.79
2022-09-03T06:29:59.439Z,58.74
2022-09-03T06:35:03.783Z,59.08
2022-09-03T06:40:12.546Z,58.96
2022-09-03T06:45:16.825Z,58.98
2022-09-03T06:50:24.317Z,59.48
2022-09-03T06:55:27.518Z,59.05
2022-09-03T07:00:31.809Z,59.04
2022-09-03T07:05:36.474Z,58.93
2022-09-03T07:10:39.494Z,58.14
2022-09-03T07:15:42.614Z,58.52
2022-09-03T07:20:46.947Z,58.36
2022-09-03T07:25:54.726Z,58.90
2022-09-03T07:31:03.856Z,57.95
2022-09-03T07:36:10.137Z,57.94
2022-09-03T07:41:26.834Z,58.25
2022-09-03T07:46:33.369Z,57.26
2022-09-03T07:51:39.319Z,56.41
2022-09-03T07:56:42.380Z,55.78
2022-09-03T08:01:45.451Z,54.86
2022-09-03T08:06:50.074Z,54.43
2022-09-03T08:11:53.050Z,54.34
2022-09-03T08:16:56.345Z,53.43
2022-09-03T08:22:01.568Z,53.76
2022-09-03T08:27:05.214Z,54.08
2022-09-03T08:32:08.357Z,53.38
2022-09-03T08:37:13.302Z,53.17
2022-09-03T08:42:41.067Z,54.82
2022-09-03T08:47:48.339Z,54.58
2022-09-03T08:52:55.970Z,52.93
2022-09-03T08:58:05.365Z,53.83
2022-09-03T09:03:32.352Z,51.05
2022-09-03T09:08:47.414Z,49.14
2022-09-03T09:13:57.483Z,47.82
2022-09-03T09:19:12.357Z,46.31
2022-09-03T09:24:23.288Z,46.06
2022-09-03T09:29:34.542Z,45.40
2022-09-03T09:34:38.723Z,43.84
2022-09-03T09:39:55.870Z,44.56
2022-09-03T09:45:11.312Z,43.17
2022-09-03T09:50:24.821Z,42.01
2022-09-03T09:55:30.939Z,42.73
2022-09-03T10:00:37.534Z,41.94
2022-09-03T10:05:41.563Z,40.74
2022-09-03T10:10:50.116Z,40.65
2022-09-03T10:15:59.390Z,39.25
2022-09-03T10:21:07.876Z,39.43
2022-09-03T10:26:15.242Z,38.68
2022-09-03T10:31:42.054Z,38.25
2022-09-03T10:36:54.636Z,37.59
2022-09-03T10:42:13.339Z,37.52
2022-09-03T10:47:29.542Z,37.16
2022-09-03T10:52:43.271Z,36.50
2022-09-03T10:57:56.145Z,35.74
2022-09-03T11:03:40.144Z,36.70
2022-09-03T11:08:49.642Z,35.84
2022-09-03T11:13:59.974Z,36.01
2022-09-03T11:19:07.187Z,35.88
2022-09-03T11:24:15.128Z,35.81
2022-09-03T11:29:26.650Z,35.70
2022-09-03T11:34:33.234Z,35.45
2022-09-03T11:39:40.002Z,35.54
2022-09-03T11:44:51.634Z,35.54
2022-09-03T11:50:07.990Z,36.38
2022-09-03T11:55:10.974Z,35.69
2022-09-03T12:00:21.771Z,35.72
2022-09-03T12:05:39.026Z,35.63
2022-09-03T12:10:52.466Z,35.66
2022-09-03T12:16:17.644Z,35.32
2022-09-03T12:21:21.762Z,35.39
2022-09-03T12:26:27.860Z,34.86
2022-09-03T12:31:38.110Z,35.25
2022-09-03T12:36:46.040Z,35.44
2022-09-03T12:41:59.193Z,35.05
2022-09-03T12:52:32.089Z,34.85
2022-09-03T12:57:39.470Z,35.12
2022-09-03T13:02:50.485Z,35.24
2022-09-03T13:07:57.143Z,34.62
2022-09-03T13:13:03.372Z,35.35
2022-09-03T13:18:26.661Z,34.65
2022-09-03T13:23:38.937Z,35.14
2022-09-03T13:28:58.636Z,32.80
2022-09-03T13:34:09.441Z,34.13
2022-09-03T13:39:25.635Z,34.19
2022-09-03T13:44:40.789Z,33.88
2022-09-03T13:50:09.382Z,34.33
2022-09-03T13:55:19.681Z,32.55
2022-09-03T14:00:32.515Z,33.89
2022-09-03T14:05:46.797Z,34.22
2022-09-03T14:11:21.441Z,34.43
2022-09-03T14:16:35.612Z,34.74
2022-09-03T14:21:46.391Z,34.93
2022-09-03T14:26:55.303Z,33.50
2022-09-03T14:32:29.561Z,36.26
2022-09-03T14:38:11.335Z,35.01
2022-09-03T14:43:32.333Z,33.63
2022-09-03T14:48:51.167Z,33.76
2022-09-03T14:54:50.149Z,33.67
2022-09-03T15:00:08.156Z,34.14
2022-09-03T15:05:19.138Z,34.89
2022-09-03T15:10:33.103Z,34.34
2022-09-03T15:16:01.407Z,33.67
2022-09-03T15:21:15.524Z,35.00
2022-09-03T15:26:36.737Z,34.17
2022-09-03T15:31:52.475Z,34.29
2022-09-03T15:36:58.614Z,33.31
2022-09-03T15:42:07.636Z,33.58
2022-09-03T15:47:21.430Z,33.32
2022-09-03T15:52:33.725Z,33.14
2022-09-03T15:57:46.064Z,33.37
2022-09-03T16:02:57.915Z,33.17
2022-09-03T16:08:13.910Z,33.72
2022-09-03T16:13:33.997Z,33.87
2022-09-03T16:18:45.596Z,32.61
2022-09-03T16:23:59.417Z,32.62
2022-09-03T16:29:09.367Z,32.86
2022-09-03T16:34:23.170Z,32.32
2022-09-03T16:39:42.710Z,32.89
2022-09-03T16:44:58.396Z,32.96
2022-09-03T16:50:14.803Z,32.49
2022-09-03T16:55:24.518Z,34.07
2022-09-03T17:00:41.015Z,35.07
2022-09-03T17:06:17.674Z,35.05
2022-09-03T17:11:39.336Z,34.80
2022-09-03T17:16:53.454Z,35.46
2022-09-03T17:22:14.686Z,35.76
2022-09-03T17:27:32.499Z,36.48
2022-09-03T17:33:04.586Z,36.78
2022-09-03T17:38:22.721Z,37.31
2022-09-03T17:43:33.070Z,37.59
2022-09-03T17:48:51.631Z,38.60
2022-09-03T17:54:04.960Z,39.23
2022-09-03T17:59:15.813Z,39.16
2022-09-03T18:04:32.982Z,40.30
2022-09-03T18:09:47.433Z,40.38
2022-09-03T18:14:57.059Z,41.00
2022-09-03T18:20:22.772Z,41.25
2022-09-03T18:25:51.469Z,42.37
2022-09-03T18:31:12.180Z,42.58
2022-09-03T18:36:33.056Z,43.38
2022-09-03T18:42:12.008Z,43.61
2022-09-03T18:48:01.435Z,43.79
2022-09-03T18:53:30.872Z,44.38
2022-09-03T18:59:03.456Z,45.03
2022-09-03T19:04:34.147Z,45.06
2022-09-03T19:10:09.459Z,45.29
2022-09-03T19:15:38.845Z,45.94
2022-09-03T19:21:09.075Z,46.41
2022-09-03T19:26:38.814Z,47.01
2022-09-03T19:32:06.047Z,47.20
2022-09-03T19:37:34.190Z,48.12
2022-09-03T19:43:12.412Z,48.46
2022-09-03T19:48:45.421Z,49.19
2022-09-03T19:54:07.222Z,50.21
2022-09-03T19:59:31.805Z,50.72
2022-09-03T20:04:58.214Z,50.09
2022-09-03T20:10:23.525Z,52.41
2022-09-03T20:15:39.378Z,53.42
2022-09-03T20:20:51.745Z,53.27
2022-09-03T20:26:13.303Z,53.94
2022-09-03T20:31:23.128Z,54.19
2022-09-03T20:36:39.898Z,55.21
2022-09-03T20:41:51.753Z,57.40
2022-09-03T20:47:12.292Z,57.36
2022-09-03T20:52:21.116Z,56.73
2022-09-03T20:57:37.927Z,56.96
2022-09-03T21:03:10.719Z,57.25
2022-09-03T21:08:44.128Z,58.07
2022-09-03T21:13:55.605Z,58.24
2022-09-03T21:19:06.829Z,59.71
2022-09-03T21:24:19.271Z,59.31
2022-09-03T21:29:26.841Z,60.46
2022-09-03T21:34:32.864Z,60.91
2022-09-03T21:39:44.232Z,61.61
2022-09-03T21:44:57.369Z,63.11
2022-09-03T21:50:14.374Z,63.99
2022-09-03T21:55:24.029Z,65.24
2022-09-03T22:00:32.500Z,64.46
2022-09-03T22:05:47.393Z,66.19
2022-09-03T22:10:59.975Z,67.10
2022-09-03T22:16:13.717Z,66.64
2022-09-03T22:21:23.607Z,66.57
2022-09-03T22:26:37.385Z,66.85
2022-09-03T22:31:53.697Z,66.35
2022-09-03T22:37:02.573Z,67.49
2022-09-03T22:42:23.638Z,65.47
2022-09-03T22:47:37.474Z,67.32
2022-09-03T22:52:45.366Z,68.83
2022-09-03T22:57:57.323Z,70.46
2022-09-03T23:03:08.474Z,69.66
2022-09-03T23:08:15.413Z,70.51
2022-09-03T23:13:23.277Z,70.99
2022-09-03T23:18:32.356Z,70.88
2022-09-03T23:23:38.967Z,73.02
2022-09-03T23:28:48.616Z,73.09
2022-09-03T23:33:53.914Z,77.26
2022-09-03T23:39:04.505Z,74.32
2022-09-03T23:44:24.654Z,73.69
2022-09-03T23:49:50.411Z,75.77
2022-09-03T23:55:04.341Z,76.95
